createdAt,value
2019-03-18T00:00:24.305Z,1000.52
2019-03-18T00:01:24.274Z,1000.53
2019-03-18T00:02:24.272Z,1000.57
2019-03-18T00:03:24.355Z,1000.59
2019-03-18T00:04:24.257Z,1000.56
2019-03-18T00:05:24.369Z,1000.58
2019-03-18T00:06:24.505Z,1000.55
2019-03-18T00:07:24.213Z,1000.58
2019-03-18T00:08:24.208Z,1000.64
2019-03-18T00:09:24.350Z,1000.60
2019-03-18T00:10:24.204Z,1000.59
2019-03-18T00:11:24.483Z,1000.62
2019-03-18T00:12:24.235Z,1000.60
2019-03-18T00:13:24.152Z,1000.65
2019-03-18T00:14:24.276Z,1000.66
2019-03-18T00:15:24.203Z,1000.65
2019-03-18T00:16:24.473Z,1000.61
2019-03-18T00:17:24.171Z,1000.62
2019-03-18T00:18:24.091Z,1000.66
2019-03-18T00:19:24.131Z,1000.69
2019-03-18T00:20:24.074Z,1000.63
2019-03-18T00:21:24.088Z,1000.71
2019-03-18T00:22:24.051Z,1000.67
2019-03-18T00:23:24.032Z,1000.61
2019-03-18T00:24:24.019Z,1000.67
2019-03-18T00:25:24.034Z,1000.66
2019-03-18T00:26:24.022Z,1000.67
2019-03-18T00:27:23.996Z,1000.58
2019-03-18T00:28:24.002Z,1000.65
2019-03-18T00:29:24.004Z,1000.62
2019-03-18T00:30:23.960Z,1000.57
2019-03-18T00:31:23.975Z,1000.57
2019-03-18T00:32:23.944Z,1000.55
2019-03-18T00:33:23.918Z,1000.53
2019-03-18T00:34:23.921Z,1000.58
2019-03-18T00:35:23.905Z,1000.61
2019-03-18T00:36:23.888Z,1000.68
2019-03-18T00:37:23.884Z,1000.70
2019-03-18T00:38:23.867Z,1000.67
2019-03-18T00:39:23.859Z,1000.69
2019-03-18T00:40:23.853Z,1000.70
2019-03-18T00:41:23.827Z,1000.65
2019-03-18T00:42:23.831Z,1000.63
2019-03-18T00:43:23.817Z,1000.67
2019-03-18T00:44:23.809Z,1000.70
2019-03-18T00:45:23.798Z,1000.71
2019-03-18T00:46:23.853Z,1000.78
2019-03-18T00:47:23.775Z,1000.78
2019-03-18T00:48:23.791Z,1000.74
2019-03-18T00:49:23.753Z,1000.71
2019-03-18T00:50:23.741Z,1000.80
2019-03-18T00:51:23.725Z,1000.76
2019-03-18T00:52:23.721Z,1000.74
2019-03-18T00:53:23.708Z,1000.82
2019-03-18T00:54:23.701Z,1000.83
2019-03-18T00:55:23.743Z,1000.88
2019-03-18T00:56:23.688Z,1000.86
2019-03-18T00:57:23.654Z,1000.92
2019-03-18T00:58:23.647Z,1000.91
2019-03-18T00:59:23.640Z,1000.93
2019-03-18T01:00:23.630Z,1000.84
2019-03-18T01:01:23.630Z,1000.94
2019-03-18T01:02:23.646Z,1000.98
2019-03-18T01:03:23.592Z,1000.96
2019-03-18T01:04:23.578Z,1000.96
2019-03-18T01:05:23.569Z,1000.99
2019-03-18T01:06:23.556Z,1000.99
2019-03-18T01:07:23.553Z,1001.02
2019-03-18T01:08:23.539Z,1000.98
2019-03-18T01:09:23.526Z,1001.05
2019-03-18T01:10:23.519Z,1001.08
2019-03-18T01:11:23.526Z,1001.04
2019-03-18T01:12:23.515Z,1001.05
2019-03-18T01:13:23.492Z,1001.02
2019-03-18T01:14:23.484Z,1001.07
2019-03-18T01:15:28.409Z,1000.99
2019-03-18T01:16:24.455Z,1001.03
2019-03-18T01:17:23.454Z,1001.02
2019-03-18T01:18:23.428Z,1001.07
2019-03-18T01:19:23.419Z,1001.05
2019-03-18T01:20:23.507Z,1001.09
2019-03-18T01:21:23.395Z,1001.04
2019-03-18T01:22:23.384Z,1001.05
2019-03-18T01:23:23.363Z,1001.02
2019-03-18T01:24:23.365Z,1001.01
2019-03-18T01:25:23.349Z,1001.01
2019-03-18T01:26:23.355Z,1001.15
2019-03-18T01:27:25.443Z,1001.17
2019-03-18T01:28:23.323Z,1001.15
2019-03-18T01:29:23.300Z,1001.13
2019-03-18T01:30:23.299Z,1001.20
2019-03-18T01:31:23.303Z,1001.07
2019-03-18T01:32:23.265Z,1001.13
2019-03-18T01:33:23.279Z,1001.13
2019-03-18T01:34:23.269Z,1001.14
2019-03-18T01:35:23.238Z,1001.01
2019-03-18T01:36:23.228Z,1001.06
2019-03-18T01:37:23.218Z,1001.10
2019-03-18T01:38:23.204Z,1001.14
2019-03-18T01:39:23.209Z,1001.12
2019-03-18T01:40:23.206Z,1001.07
2019-03-18T01:41:23.179Z,1001.14
2019-03-18T01:42:23.158Z,1001.05
2019-03-18T01:43:23.160Z,1001.04
2019-03-18T01:44:23.138Z,1000.99
2019-03-18T01:45:23.142Z,1001.05
2019-03-18T01:46:23.149Z,1000.95
2019-03-18T01:47:23.100Z,1001.01
2019-03-18T01:48:23.096Z,1001.05
2019-03-18T01:49:23.078Z,1000.99
2019-03-18T01:50:23.078Z,1000.95
2019-03-18T01:51:23.067Z,1000.93
2019-03-18T01:52:23.049Z,1000.96
2019-03-18T01:53:23.035Z,1000.84
2019-03-18T01:54:23.029Z,1000.83
2019-03-18T01:55:23.016Z,1000.81
2019-03-18T01:56:23.016Z,1000.89
2019-03-18T01:57:22.998Z,1000.83
2019-03-18T01:58:22.981Z,1000.76
2019-03-18T01:59:23.059Z,1000.84
2019-03-18T02:00:22.965Z,1000.88
2019-03-18T02:01:22.973Z,1000.86
2019-03-18T02:02:22.951Z,1000.83
2019-03-18T02:03:22.948Z,1000.82
2019-03-18T02:04:22.978Z,1000.86
2019-03-18T02:05:22.912Z,1000.87
2019-03-18T02:06:22.911Z,1000.88
2019-03-18T02:07:22.892Z,1000.81
2019-03-18T02:08:22.886Z,1000.85
2019-03-18T02:09:22.862Z,1000.90
2019-03-18T02:10:22.855Z,1000.95
2019-03-18T02:11:22.840Z,1000.95
2019-03-18T02:12:22.825Z,1000.96
2019-03-18T02:13:22.833Z,1000.91
2019-03-18T02:14:22.829Z,1000.87
2019-03-18T02:15:22.806Z,1000.92
2019-03-18T02:16:22.806Z,1000.96
2019-03-18T02:17:22.817Z,1000.97
2019-03-18T02:18:22.771Z,1001.05
2019-03-18T02:19:22.767Z,1000.99
2019-03-18T02:20:22.761Z,1000.98
2019-03-18T02:21:22.744Z,1000.96
2019-03-18T02:22:22.740Z,1000.96
2019-03-18T02:23:22.719Z,1000.95
2019-03-18T02:24:22.711Z,1000.97
2019-03-18T02:25:22.703Z,1000.92
2019-03-18T02:26:22.719Z,1000.96
2019-03-18T02:27:22.673Z,1000.93
2019-03-18T02:28:22.681Z,1000.95
2019-03-18T02:29:22.657Z,1000.98
2019-03-18T02:30:22.662Z,1000.91
2019-03-18T02:31:22.641Z,1000.97
2019-03-18T02:32:22.625Z,1000.89
2019-03-18T02:33:22.629Z,1000.92
2019-03-18T02:34:22.597Z,1000.90
2019-03-18T02:35:22.587Z,1000.95
2019-03-18T02:36:22.589Z,1000.95
2019-03-18T02:37:22.598Z,1000.94
2019-03-18T02:38:22.571Z,1000.95
2019-03-18T02:39:22.540Z,1000.92
2019-03-18T02:40:22.550Z,1000.95
2019-03-18T02:41:22.517Z,1000.93
2019-03-18T02:42:22.533Z,1000.96
2019-03-18T02:43:22.498Z,1000.92
2019-03-18T02:44:22.491Z,1000.96
2019-03-18T02:45:24.627Z,1000.95
2019-03-18T02:46:22.471Z,1000.92
2019-03-18T02:47:22.458Z,1000.99
2019-03-18T02:48:22.478Z,1000.95
2019-03-18T02:49:22.431Z,1000.96
2019-03-18T02:50:22.420Z,1001.02
2019-03-18T02:51:22.418Z,1000.95
2019-03-18T02:52:22.426Z,1001.09
2019-03-18T02:53:22.397Z,1001.03
2019-03-18T02:54:22.382Z,1001.05
2019-03-18T02:55:22.368Z,1001.03
2019-03-18T02:56:22.353Z,1001.04
2019-03-18T02:57:22.348Z,1000.99
2019-03-18T02:58:22.336Z,1000.99
2019-03-18T02:59:22.348Z,1000.93
2019-03-18T03:00:22.343Z,1000.90
2019-03-18T03:01:22.322Z,1000.93
2019-03-18T03:02:22.324Z,1000.97
2019-03-18T03:03:22.327Z,1000.98
2019-03-18T03:04:22.272Z,1000.95
2019-03-18T03:05:22.267Z,1000.99
2019-03-18T03:06:22.255Z,1001.01
2019-03-18T03:07:22.243Z,1000.99
2019-03-18T03:08:22.270Z,1000.90
2019-03-18T03:09:22.267Z,1001.01
2019-03-18T03:10:22.220Z,1000.94
2019-03-18T03:11:22.223Z,1000.96
2019-03-18T03:12:22.212Z,1000.94
2019-03-18T03:13:22.184Z,1000.96
2019-03-18T03:14:22.300Z,1000.93
2019-03-18T03:15:22.147Z,1001.01
2019-03-18T03:16:27.187Z,1001.01
2019-03-18T03:17:23.131Z,1001.05
2019-03-18T03:18:22.147Z,1001.11
2019-03-18T03:19:22.151Z,1001.03
2019-03-18T03:20:22.114Z,1001.06
2019-03-18T03:21:22.133Z,1001.08
2019-03-18T03:22:22.093Z,1001.04
2019-03-18T03:23:22.079Z,1001.06
2019-03-18T03:24:22.064Z,1001.08
2019-03-18T03:25:24.970Z,1001.07
2019-03-18T03:26:22.038Z,1001.06
2019-03-18T03:27:22.030Z,1001.03
2019-03-18T03:28:22.054Z,1001.04
2019-03-18T03:29:22.008Z,1001.05
2019-03-18T03:30:21.994Z,1001.11
2019-03-18T03:31:21.981Z,1001.20
2019-03-18T03:32:21.988Z,1001.09
2019-03-18T03:33:22.021Z,1001.11
2019-03-18T03:34:22.179Z,1001.09
2019-03-18T03:35:22.065Z,1001.19
2019-03-18T03:36:21.920Z,1001.20
2019-03-18T03:37:21.913Z,1001.21
2019-03-18T03:38:21.915Z,1001.18
2019-03-18T03:39:21.920Z,1001.28
2019-03-18T03:40:21.904Z,1001.17
2019-03-18T03:41:21.872Z,1001.19
2019-03-18T03:42:21.867Z,1001.17
2019-03-18T03:43:21.849Z,1001.16
2019-03-18T03:44:21.848Z,1001.15
2019-03-18T03:45:21.881Z,1001.14
2019-03-18T03:46:21.854Z,1001.18
2019-03-18T03:47:21.828Z,1001.14
2019-03-18T03:48:21.800Z,1001.15
2019-03-18T03:49:21.792Z,1001.23
2019-03-18T03:50:21.783Z,1001.28
2019-03-18T03:51:21.781Z,1001.22
2019-03-18T03:52:21.756Z,1001.29
2019-03-18T03:53:21.747Z,1001.21
2019-03-18T03:54:21.742Z,1001.20
2019-03-18T03:55:21.766Z,1001.15
2019-03-18T03:56:21.720Z,1001.15
2019-03-18T03:57:21.716Z,1001.19
2019-03-18T03:58:21.717Z,1001.20
2019-03-18T03:59:21.692Z,1001.27
2019-03-18T04:00:21.728Z,1001.13
2019-03-18T04:01:21.657Z,1001.17
2019-03-18T04:02:21.659Z,1001.25
2019-03-18T04:03:37.259Z,1001.18
2019-03-18T04:04:22.633Z,1001.23
2019-03-18T04:05:21.619Z,1001.23
2019-03-18T04:06:21.639Z,1001.19
2019-03-18T04:07:21.590Z,1001.19
2019-03-18T04:08:21.593Z,1001.14
2019-03-18T04:09:21.587Z,1001.19
2019-03-18T04:10:21.595Z,1001.24
2019-03-18T04:11:21.554Z,1001.23
2019-03-18T04:12:21.541Z,1001.31
2019-03-18T04:13:21.532Z,1001.28
2019-03-18T04:14:21.553Z,1001.35
2019-03-18T04:15:21.533Z,1001.27
2019-03-18T04:16:21.501Z,1001.24
2019-03-18T04:17:21.492Z,1001.20
2019-03-18T04:18:21.471Z,1001.16
2019-03-18T04:19:21.498Z,1001.26
2019-03-18T04:20:21.470Z,1001.27
2019-03-18T04:21:21.447Z,1001.24
2019-03-18T04:22:21.438Z,1001.38
2019-03-18T04:23:21.428Z,1001.38
2019-03-18T04:24:21.407Z,1001.35
2019-03-18T04:25:21.413Z,1001.44
2019-03-18T04:26:21.405Z,1001.47
2019-03-18T04:27:24.552Z,1001.46
2019-03-18T04:28:21.371Z,1001.45
2019-03-18T04:29:21.357Z,1001.44
2019-03-18T04:30:21.346Z,1001.41
2019-03-18T04:31:21.364Z,1001.50
2019-03-18T04:32:21.354Z,1001.46
2019-03-18T04:33:21.314Z,1001.54
2019-03-18T04:34:21.324Z,1001.56
2019-03-18T04:35:21.316Z,1001.46
2019-03-18T04:36:21.283Z,1001.54
2019-03-18T04:37:21.287Z,1001.56
2019-03-18T04:38:21.284Z,1001.56
2019-03-18T04:39:21.255Z,1001.58
2019-03-18T04:40:21.241Z,1001.57
2019-03-18T04:41:21.227Z,1001.53
2019-03-18T04:42:21.231Z,1001.74
2019-03-18T04:43:21.213Z,1001.70
2019-03-18T04:44:21.195Z,1001.64
2019-03-18T04:45:21.193Z,1001.73
2019-03-18T04:46:21.171Z,1001.63
2019-03-18T04:47:21.166Z,1001.68
2019-03-18T04:48:21.152Z,1001.70
2019-03-18T04:49:21.180Z,1001.64
2019-03-18T04:50:21.128Z,1001.68
2019-03-18T04:51:21.118Z,1001.65
2019-03-18T04:52:21.112Z,1001.66
2019-03-18T04:53:21.094Z,1001.68
2019-03-18T04:54:21.094Z,1001.73
2019-03-18T04:55:21.086Z,1001.65
2019-03-18T04:56:21.068Z,1001.71
2019-03-18T04:57:21.056Z,1001.71
2019-03-18T04:58:21.038Z,1001.68
2019-03-18T04:59:21.030Z,1001.70
2019-03-18T05:00:21.035Z,1001.65
2019-03-18T05:01:21.007Z,1001.63
2019-03-18T05:02:20.995Z,1001.70
2019-03-18T05:03:20.988Z,1001.73
2019-03-18T05:04:21.041Z,1001.74
2019-03-18T05:05:20.969Z,1001.80
2019-03-18T05:06:20.963Z,1001.78
2019-03-18T05:07:21.031Z,1001.71
2019-03-18T05:08:20.985Z,1001.77
2019-03-18T05:09:20.921Z,1001.75
2019-03-18T05:10:20.914Z,1001.86
2019-03-18T05:11:20.908Z,1001.83
2019-03-18T05:12:20.918Z,1001.68
2019-03-18T05:13:20.940Z,1001.82
2019-03-18T05:14:20.871Z,1001.85
2019-03-18T05:15:20.887Z,1001.79
2019-03-18T05:16:20.845Z,1001.80
2019-03-18T05:17:26.661Z,1001.91
2019-03-18T05:18:21.837Z,1001.78
2019-03-18T05:19:20.822Z,1001.76
2019-03-18T05:20:20.832Z,1001.87
2019-03-18T05:21:20.807Z,1001.77
2019-03-18T05:22:20.790Z,1001.79
2019-03-18T05:23:20.777Z,1001.75
2019-03-18T05:24:20.765Z,1001.81
2019-03-18T05:25:20.757Z,1001.91
2019-03-18T05:26:22.419Z,1001.75
2019-03-18T05:27:20.747Z,1001.91
2019-03-18T05:28:20.723Z,1001.86
2019-03-18T05:29:20.722Z,1001.97
2019-03-18T05:30:20.729Z,1002.01
2019-03-18T05:31:20.707Z,1001.98
2019-03-18T05:32:20.691Z,1002.01
2019-03-18T05:33:20.672Z,1002.04
2019-03-18T05:34:20.683Z,1002.00
2019-03-18T05:35:20.669Z,1002.04
2019-03-18T05:36:20.662Z,1002.08
2019-03-18T05:37:20.639Z,1002.02
2019-03-18T05:38:20.622Z,1002.11
2019-03-18T05:39:20.605Z,1002.15
2019-03-18T05:40:20.602Z,1002.12
2019-03-18T05:41:20.586Z,1002.15
2019-03-18T05:42:20.574Z,1002.25
2019-03-18T05:43:20.569Z,1002.20
2019-03-18T05:44:20.550Z,1002.16
2019-03-18T05:45:20.534Z,1002.26
2019-03-18T05:46:20.534Z,1002.19
2019-03-18T05:47:20.542Z,1002.23
2019-03-18T05:48:20.507Z,1002.14
2019-03-18T05:49:20.502Z,1002.17
2019-03-18T05:50:20.497Z,1002.23
2019-03-18T05:51:20.476Z,1002.21
2019-03-18T05:52:20.469Z,1002.26
2019-03-18T05:53:20.455Z,1002.28
2019-03-18T05:54:20.459Z,1002.47
2019-03-18T05:55:20.441Z,1002.29
2019-03-18T05:56:20.421Z,1002.39
2019-03-18T05:57:20.417Z,1002.28
2019-03-18T05:58:20.413Z,1002.43
2019-03-18T05:59:20.395Z,1002.41
2019-03-18T06:00:20.375Z,1002.43
2019-03-18T06:01:20.420Z,1002.32
2019-03-18T06:02:20.465Z,1002.42
2019-03-18T06:03:20.357Z,1002.42
2019-03-18T06:04:20.334Z,1002.31
2019-03-18T06:05:20.326Z,1002.38
2019-03-18T06:06:20.320Z,1002.40
2019-03-18T06:07:20.317Z,1002.32
2019-03-18T06:08:20.287Z,1002.30
2019-03-18T06:09:20.289Z,1002.36
2019-03-18T06:10:20.273Z,1002.41
2019-03-18T06:11:20.263Z,1002.33
2019-03-18T06:12:20.246Z,1002.41
2019-03-18T06:13:20.253Z,1002.39
2019-03-18T06:14:20.261Z,1002.35
2019-03-18T06:15:20.232Z,1002.36
2019-03-18T06:16:20.205Z,1002.37
2019-03-18T06:17:20.208Z,1002.34
2019-03-18T06:18:20.198Z,1002.43
2019-03-18T06:19:20.172Z,1002.42
2019-03-18T06:20:20.164Z,1002.42
2019-03-18T06:21:20.193Z,1002.53
2019-03-18T06:22:20.139Z,1002.47
2019-03-18T06:23:20.137Z,1002.47
2019-03-18T06:24:20.120Z,1002.40
2019-03-18T06:25:20.116Z,1002.44
2019-03-18T06:26:20.110Z,1002.48
2019-03-18T06:27:20.090Z,1002.59
2019-03-18T06:28:20.080Z,1002.58
2019-03-18T06:29:20.060Z,1002.63
2019-03-18T06:30:20.050Z,1002.64
2019-03-18T06:31:20.046Z,1002.63
2019-03-18T06:32:20.062Z,1002.57
2019-03-18T06:33:20.031Z,1002.61
2019-03-18T06:34:20.012Z,1002.62
2019-03-18T06:35:20.645Z,1002.72
2019-03-18T06:36:19.992Z,1002.69
2019-03-18T06:37:19.975Z,1002.67
2019-03-18T06:38:19.979Z,1002.73
2019-03-18T06:39:19.964Z,1002.74
2019-03-18T06:40:19.948Z,1002.77
2019-03-18T06:41:19.955Z,1002.76
2019-03-18T06:42:19.956Z,1002.78
2019-03-18T06:43:19.925Z,1002.79
2019-03-18T06:44:19.927Z,1002.78
2019-03-18T06:45:19.891Z,1002.75
2019-03-18T06:46:19.883Z,1002.79
2019-03-18T06:47:19.884Z,1002.74
2019-03-18T06:48:19.861Z,1002.85
2019-03-18T06:49:19.847Z,1002.82
2019-03-18T06:50:19.846Z,1002.79
2019-03-18T06:51:19.825Z,1002.79
2019-03-18T06:52:19.826Z,1002.74
2019-03-18T06:53:19.811Z,1002.84
2019-03-18T06:54:19.802Z,1002.82
2019-03-18T06:55:19.791Z,1002.82
2019-03-18T06:56:19.778Z,1002.80
2019-03-18T06:57:19.762Z,1002.81
2019-03-18T06:58:19.773Z,1002.83
2019-03-18T06:59:19.783Z,1002.82
2019-03-18T07:00:19.734Z,1002.80
2019-03-18T07:01:19.725Z,1002.89
2019-03-18T07:02:19.711Z,1002.87
2019-03-18T07:03:19.706Z,1002.87
2019-03-18T07:04:19.687Z,1002.91
2019-03-18T07:05:19.683Z,1002.82
2019-03-18T07:06:19.682Z,1002.92
2019-03-18T07:07:19.655Z,1002.88
2019-03-18T07:08:19.634Z,1002.93
2019-03-18T07:09:19.633Z,1002.92
2019-03-18T07:10:19.612Z,1002.94
2019-03-18T07:11:19.616Z,1002.95
2019-03-18T07:12:19.678Z,1002.99
2019-03-18T07:13:19.580Z,1002.91
2019-03-18T07:14:19.580Z,1002.92
2019-03-18T07:15:19.580Z,1002.92
2019-03-18T07:16:19.548Z,1002.90
2019-03-18T07:17:19.548Z,1002.96
2019-03-18T07:18:19.534Z,1002.93
2019-03-18T07:19:19.518Z,1002.97
2019-03-18T07:20:19.508Z,1002.98
2019-03-18T07:21:19.513Z,1003.04
2019-03-18T07:22:19.481Z,1003.02
2019-03-18T07:23:19.472Z,1003.11
2019-03-18T07:24:19.468Z,1003.04
2019-03-18T07:25:19.453Z,1003.19
2019-03-18T07:26:19.548Z,1003.11
2019-03-18T07:27:19.471Z,1003.13
2019-03-18T07:28:19.459Z,1003.20
2019-03-18T07:29:19.423Z,1003.13
2019-03-18T07:30:19.407Z,1003.13
2019-03-18T07:31:19.445Z,1003.20
2019-03-18T07:32:19.389Z,1003.15
2019-03-18T07:33:19.355Z,1003.16
2019-03-18T07:34:19.369Z,1003.12
2019-03-18T07:35:19.341Z,1003.11
2019-03-18T07:36:19.324Z,1003.11
2019-03-18T07:37:19.323Z,1003.15
2019-03-18T07:38:19.318Z,1003.09
2019-03-18T07:39:19.291Z,1003.09
2019-03-18T07:40:19.291Z,1003.10
2019-03-18T07:41:19.455Z,1003.16
2019-03-18T07:42:19.265Z,1003.05
2019-03-18T07:43:19.266Z,1003.10
2019-03-18T07:44:19.251Z,1003.15
2019-03-18T07:45:19.232Z,1003.22
2019-03-18T07:46:19.229Z,1003.19
2019-03-18T07:47:19.206Z,1003.07
2019-03-18T07:48:30.424Z,1003.18
2019-03-18T07:49:20.185Z,1003.08
2019-03-18T07:50:19.177Z,1003.16
2019-03-18T07:51:19.168Z,1003.10
2019-03-18T07:52:21.757Z,1003.13
2019-03-18T07:53:19.137Z,1003.20
2019-03-18T07:54:31.920Z,1003.15
2019-03-18T07:55:20.122Z,1003.29
2019-03-18T07:56:19.152Z,1003.25
2019-03-18T07:57:19.112Z,1003.27
2019-03-18T07:58:19.114Z,1003.31
2019-03-18T07:59:19.072Z,1003.25
2019-03-18T08:00:19.075Z,1003.28
2019-03-18T08:01:19.066Z,1003.27
2019-03-18T08:02:19.056Z,1003.27
2019-03-18T08:03:19.075Z,1003.26
2019-03-18T08:04:19.036Z,1003.29
2019-03-18T08:05:19.004Z,1003.24
2019-03-18T08:06:19.003Z,1003.32
2019-03-18T08:07:19.042Z,1003.17
2019-03-18T08:08:19.002Z,1003.19
2019-03-18T08:09:18.965Z,1003.23
2019-03-18T08:10:18.971Z,1003.32
2019-03-18T08:11:18.947Z,1003.19
2019-03-18T08:12:18.943Z,1003.23
2019-03-18T08:13:18.928Z,1003.47
2019-03-18T08:14:18.916Z,1003.35
2019-03-18T08:15:18.905Z,1003.24
2019-03-18T08:16:18.880Z,1003.38
2019-03-18T08:17:18.875Z,1003.33
2019-03-18T08:18:18.871Z,1003.36
2019-03-18T08:19:18.867Z,1003.40
2019-03-18T08:20:18.844Z,1003.37
2019-03-18T08:21:18.841Z,1003.42
2019-03-18T08:22:18.822Z,1003.40
2019-03-18T08:23:18.811Z,1003.37
2019-03-18T08:24:18.798Z,1003.39
2019-03-18T08:25:18.803Z,1003.46
2019-03-18T08:26:18.788Z,1003.42
2019-03-18T08:27:18.823Z,1003.47
2019-03-18T08:28:18.754Z,1003.46
2019-03-18T08:29:18.782Z,1003.58
2019-03-18T08:30:18.742Z,1003.52
2019-03-18T08:31:18.731Z,1003.47
2019-03-18T08:32:18.719Z,1003.48
2019-03-18T08:33:18.944Z,1003.50
2019-03-18T08:34:18.694Z,1003.44
2019-03-18T08:35:18.812Z,1003.51
2019-03-18T08:36:18.697Z,1003.55
2019-03-18T08:37:18.876Z,1003.54
2019-03-18T08:38:18.690Z,1003.37
2019-03-18T08:39:18.636Z,1003.60
2019-03-18T08:40:18.679Z,1003.60
2019-03-18T08:41:18.621Z,1003.64
2019-03-18T08:42:18.647Z,1003.57
2019-03-18T08:43:18.609Z,1003.64
2019-03-18T08:44:18.594Z,1003.64
2019-03-18T08:45:18.570Z,1003.68
2019-03-18T08:46:18.563Z,1003.71
2019-03-18T08:47:18.574Z,1003.77
2019-03-18T08:48:18.573Z,1003.64
2019-03-18T08:49:18.534Z,1003.86
2019-03-18T08:50:18.604Z,1003.73
2019-03-18T08:51:18.516Z,1003.65
2019-03-18T08:52:18.568Z,1003.82
2019-03-18T08:53:18.513Z,1003.80
2019-03-18T08:54:18.482Z,1003.79
2019-03-18T08:55:18.472Z,1003.82
2019-03-18T08:56:18.447Z,1003.80
2019-03-18T08:57:18.447Z,1003.86
2019-03-18T08:58:18.539Z,1003.87
2019-03-18T08:59:18.521Z,1003.93
2019-03-18T09:00:18.434Z,1003.92
2019-03-18T09:01:18.398Z,1003.80
2019-03-18T09:02:18.397Z,1003.87
2019-03-18T09:03:18.382Z,1003.87
2019-03-18T09:04:18.376Z,1003.85
2019-03-18T09:05:18.379Z,1003.88
2019-03-18T09:06:18.405Z,1003.81
2019-03-18T09:07:18.338Z,1003.90
2019-03-18T09:08:18.331Z,1003.89
2019-03-18T09:09:18.325Z,1003.85
2019-03-18T09:10:18.322Z,1003.86
2019-03-18T09:11:18.295Z,1003.85
2019-03-18T09:12:18.284Z,1003.89
2019-03-18T09:13:18.273Z,1003.81
2019-03-18T09:14:18.257Z,1003.83
2019-03-18T09:15:18.254Z,1003.92
2019-03-18T09:16:18.240Z,1003.88
2019-03-18T09:17:18.269Z,1003.86
2019-03-18T09:18:18.376Z,1003.87
2019-03-18T09:19:18.202Z,1003.84
2019-03-18T09:20:18.218Z,1003.85
2019-03-18T09:21:18.182Z,1003.94
2019-03-18T09:22:18.170Z,1003.86
2019-03-18T09:23:18.161Z,1003.97
2019-03-18T09:24:18.159Z,1003.91
2019-03-18T09:25:18.132Z,1003.97
2019-03-18T09:26:18.126Z,1003.85
2019-03-18T09:27:18.119Z,1003.87
2019-03-18T09:28:18.114Z,1003.82
2019-03-18T09:29:18.092Z,1003.84
2019-03-18T09:30:18.138Z,1003.80
2019-03-18T09:31:18.217Z,1003.95
2019-03-18T09:32:18.100Z,1003.94
2019-03-18T09:33:18.078Z,1003.92
2019-03-18T09:34:18.035Z,1003.95
2019-03-18T09:35:18.025Z,1003.89
2019-03-18T09:36:18.018Z,1004.00
2019-03-18T09:37:18.013Z,1003.94
2019-03-18T09:38:17.995Z,1003.97
2019-03-18T09:39:17.986Z,1003.97
2019-03-18T09:40:17.984Z,1004.05
2019-03-18T09:41:17.972Z,1004.01
2019-03-18T09:42:18.245Z,1004.09
2019-03-18T09:43:17.956Z,1004.08
2019-03-18T09:44:17.947Z,1004.06
2019-03-18T09:45:17.927Z,1004.08
2019-03-18T09:46:17.907Z,1004.25
2019-03-18T09:47:17.910Z,1004.12
2019-03-18T09:48:17.902Z,1004.12
2019-03-18T09:49:21.949Z,1004.09
2019-03-18T09:50:17.890Z,1004.10
2019-03-18T09:51:17.854Z,1004.09
2019-03-18T09:52:17.852Z,1004.10
2019-03-18T09:53:17.841Z,1004.02
2019-03-18T09:54:17.832Z,1004.15
2019-03-18T09:55:17.844Z,1004.12
2019-03-18T09:56:17.796Z,1003.93
2019-03-18T09:57:26.026Z,1004.13
2019-03-18T09:58:18.777Z,1004.14
2019-03-18T09:59:17.765Z,1004.18
2019-03-18T10:00:17.762Z,1004.13
2019-03-18T10:01:17.747Z,1004.12
2019-03-18T10:02:17.735Z,1004.35
2019-03-18T10:03:17.728Z,1004.27
2019-03-18T10:04:17.705Z,1004.24
2019-03-18T10:05:17.744Z,1004.21
2019-03-18T10:06:17.680Z,1004.19
2019-03-18T10:07:17.674Z,1004.27
2019-03-18T10:08:17.661Z,1004.29
2019-03-18T10:09:17.658Z,1004.30
2019-03-18T10:10:17.648Z,1004.27
2019-03-18T10:11:17.635Z,1004.26
2019-03-18T10:12:17.641Z,1004.30
2019-03-18T10:13:17.609Z,1004.32
2019-03-18T10:14:19.608Z,1004.39
2019-03-18T10:15:17.609Z,1004.33
2019-03-18T10:16:17.577Z,1004.45
2019-03-18T10:17:17.580Z,1004.37
2019-03-18T10:18:17.564Z,1004.41
2019-03-18T10:19:17.542Z,1004.41
2019-03-18T10:20:17.531Z,1004.46
2019-03-18T10:21:17.587Z,1004.44
2019-03-18T10:22:17.515Z,1004.52
2019-03-18T10:23:17.527Z,1004.58
2019-03-18T10:24:17.525Z,1004.49
2019-03-18T10:25:17.489Z,1004.59
2019-03-18T10:26:17.477Z,1004.51
2019-03-18T10:27:17.526Z,1004.53
2019-03-18T10:28:17.482Z,1004.60
2019-03-18T10:29:17.455Z,1004.55
2019-03-18T10:30:17.432Z,1004.60
2019-03-18T10:31:17.505Z,1004.48
2019-03-18T10:32:17.393Z,1004.48
2019-03-18T10:33:17.423Z,1004.42
2019-03-18T10:34:17.392Z,1004.52
2019-03-18T10:35:17.381Z,1004.49
2019-03-18T10:36:17.359Z,1004.48
2019-03-18T10:37:17.350Z,1004.59
2019-03-18T10:38:17.329Z,1004.54
2019-03-18T10:39:17.323Z,1004.53
2019-03-18T10:40:17.331Z,1004.60
2019-03-18T10:41:17.312Z,1004.65
2019-03-18T10:42:17.295Z,1004.65
2019-03-18T10:43:17.279Z,1004.61
2019-03-18T10:44:17.271Z,1004.67
2019-03-18T10:45:17.267Z,1004.87
2019-03-18T10:46:17.249Z,1004.69
2019-03-18T10:47:17.242Z,1004.70
2019-03-18T10:48:17.289Z,1004.67
2019-03-18T10:49:17.212Z,1004.66
2019-03-18T10:50:17.200Z,1004.66
2019-03-18T10:51:17.200Z,1004.69
2019-03-18T10:52:17.198Z,1004.50
2019-03-18T10:53:17.208Z,1004.69
2019-03-18T10:54:17.186Z,1004.62
2019-03-18T10:55:17.188Z,1004.63
2019-03-18T10:56:17.135Z,1004.61
2019-03-18T10:57:17.137Z,1004.59
2019-03-18T10:58:18.181Z,1004.80
2019-03-18T10:59:17.142Z,1004.79
2019-03-18T11:00:17.200Z,1004.80
2019-03-18T11:01:17.083Z,1004.73
2019-03-18T11:02:17.080Z,1004.68
2019-03-18T11:03:17.067Z,1004.77
2019-03-18T11:04:17.085Z,1004.70
2019-03-18T11:05:17.052Z,1004.70
2019-03-18T11:06:17.100Z,1004.86
2019-03-18T11:07:17.019Z,1004.86
2019-03-18T11:08:17.013Z,1004.71
2019-03-18T11:09:17.000Z,1004.93
2019-03-18T11:10:16.986Z,1004.97
2019-03-18T11:11:16.975Z,1004.95
2019-03-18T11:12:16.956Z,1005.01
2019-03-18T11:13:16.954Z,1005.08
2019-03-18T11:14:16.947Z,1005.07
2019-03-18T11:15:16.936Z,1005.10
2019-03-18T11:16:16.957Z,1005.19
2019-03-18T11:17:16.910Z,1005.18
2019-03-18T11:18:16.906Z,1005.21
2019-03-18T11:19:16.934Z,1005.17
2019-03-18T11:20:16.868Z,1005.14
2019-03-18T11:21:16.875Z,1005.00
2019-03-18T11:22:16.883Z,1005.13
2019-03-18T11:23:16.854Z,1005.08
2019-03-18T11:24:16.834Z,1005.13
2019-03-18T11:25:16.834Z,1005.11
2019-03-18T11:26:16.827Z,1005.11
2019-03-18T11:27:16.809Z,1005.03
2019-03-18T11:28:16.785Z,1005.03
2019-03-18T11:29:16.778Z,1005.04
2019-03-18T11:30:16.759Z,1005.10
2019-03-18T11:31:16.756Z,1005.08
2019-03-18T11:32:16.751Z,1005.13
2019-03-18T11:33:16.723Z,1005.02
2019-03-18T11:34:16.766Z,1005.05
2019-03-18T11:35:16.733Z,1005.06
2019-03-18T11:36:16.696Z,1005.10
2019-03-18T11:37:16.707Z,1005.04
2019-03-18T11:38:16.721Z,1005.11
2019-03-18T11:39:16.666Z,1004.99
2019-03-18T11:40:16.657Z,1005.01
2019-03-18T11:41:17.623Z,1004.94
2019-03-18T11:42:16.631Z,1004.94
2019-03-18T11:43:16.627Z,1004.88
2019-03-18T11:44:16.624Z,1004.90
2019-03-18T11:45:16.604Z,1004.83
2019-03-18T11:46:16.602Z,1004.91
2019-03-18T11:47:16.580Z,1004.89
2019-03-18T11:48:16.583Z,1004.85
2019-03-18T11:49:16.571Z,1004.86
2019-03-18T11:50:16.536Z,1004.88
2019-03-18T11:51:16.557Z,1004.84
2019-03-18T11:52:16.597Z,1004.70
2019-03-18T11:53:16.517Z,1004.75
2019-03-18T11:54:16.553Z,1004.78
2019-03-18T11:55:16.568Z,1004.82
2019-03-18T11:56:16.475Z,1004.74
2019-03-18T11:57:16.469Z,1004.81
2019-03-18T11:58:16.474Z,1004.74
2019-03-18T11:59:16.447Z,1004.76
2019-03-18T12:00:16.444Z,1004.65
2019-03-18T12:01:16.426Z,1004.73
2019-03-18T12:02:27.185Z,1004.83
2019-03-18T12:03:17.398Z,1004.77
2019-03-18T12:04:16.390Z,1004.63
2019-03-18T12:05:16.383Z,1004.65